sensor_id;sensor_type;location;lat;lon;timestamp;P1;durP1;ratioP1;P2;durP2;ratioP2
13445;SDS011;6795;51.232;3.764;2023-10-13T00:01:10;9.75;;;3.28;;
13445;SDS011;6795;51.232;3.764;2023-10-13T00:03:40;10.98;;;2.70;;
13445;SDS011;6795;51.232;3.764;2023-10-13T00:06:10;6.32;;;3.20;;
13445;SDS011;6795;51.232;3.764;2023-10-13T00:08:38;9.20;;;2.97;;
13445;SDS011;6795;51.232;3.764;2023-10-13T00:11:12;6.20;;;3.40;;
13445;SDS011;6795;51.232;3.764;2023-10-13T00:13:41;7.30;;;2.80;;
13445;SDS011;6795;51.232;3.764;2023-10-13T00:16:16;6.15;;;2.83;;
13445;SDS011;6795;51.232;3.764;2023-10-13T00:18:51;11.02;;;3.33;;
13445;SDS011;6795;51.232;3.764;2023-10-13T00:21:21;10.75;;;3.55;;
13445;SDS011;6795;51.232;3.764;2023-10-13T00:23:58;6.43;;;2.60;;
13445;SDS011;6795;51.232;3.764;2023-10-13T00:26:29;8.10;;;3.97;;
13445;SDS011;6795;51.232;3.764;2023-10-13T00:29:02;8.40;;;2.88;;
13445;SDS011;6795;51.232;3.764;2023-10-13T00:31:42;9.82;;;3.17;;
13445;SDS011;6795;51.232;3.764;2023-10-13T00:34:11;6.35;;;2.50;;
13445;SDS011;6795;51.232;3.764;2023-10-13T00:36:47;7.00;;;2.63;;
13445;SDS011;6795;51.232;3.764;2023-10-13T00:39:37;9.40;;;2.80;;
13445;SDS011;6795;51.232;3.764;2023-10-13T00:42:12;10.00;;;3.20;;
13445;SDS011;6795;51.232;3.764;2023-10-13T00:44:47;6.22;;;2.53;;
13445;SDS011;6795;51.232;3.764;2023-10-13T00:47:16;9.57;;;3.25;;
13445;SDS011;6795;51.232;3.764;2023-10-13T00:49:59;11.50;;;3.10;;
13445;SDS011;6795;51.232;3.764;2023-10-13T00:52:27;9.15;;;3.60;;
13445;SDS011;6795;51.232;3.764;2023-10-13T00:54:56;8.70;;;3.92;;
13445;SDS011;6795;51.232;3.764;2023-10-13T00:57:28;7.13;;;2.83;;
13445;SDS011;6795;51.232;3.764;2023-10-13T01:00:00;7.07;;;3.33;;
13445;SDS011;6795;51.232;3.764;2023-10-13T01:02:44;8.68;;;3.25;;
13445;SDS011;6795;51.232;3.764;2023-10-13T01:05:12;16.98;;;3.90;;
13445;SDS011;6795;51.232;3.764;2023-10-13T01:07:46;7.70;;;3.45;;
13445;SDS011;6795;51.232;3.764;2023-10-13T01:10:19;7.97;;;3.60;;
13445;SDS011;6795;51.232;3.764;2023-10-13T01:12:54;8.25;;;4.18;;
13445;SDS011;6795;51.232;3.764;2023-10-13T01:15:24;7.45;;;3.63;;
13445;SDS011;6795;51.232;3.764;2023-10-13T01:18:05;9.05;;;3.83;;
13445;SDS011;6795;51.232;3.764;2023-10-13T01:20:39;9.38;;;3.75;;
13445;SDS011;6795;51.232;3.764;2023-10-13T01:23:13;12.50;;;3.33;;
13445;SDS011;6795;51.232;3.764;2023-10-13T01:25:45;8.77;;;3.50;;
13445;SDS011;6795;51.232;3.764;2023-10-13T01:28:15;6.43;;;3.25;;
13445;SDS011;6795;51.232;3.764;2023-10-13T01:30:43;8.68;;;3.30;;
13445;SDS011;6795;51.232;3.764;2023-10-13T01:33:19;10.75;;;3.67;;
13445;SDS011;6795;51.232;3.764;2023-10-13T01:35:54;6.88;;;2.80;;
13445;SDS011;6795;51.232;3.764;2023-10-13T01:38:27;10.95;;;3.55;;
13445;SDS011;6795;51.232;3.764;2023-10-13T01:40:55;12.35;;;3.33;;
13445;SDS011;6795;51.232;3.764;2023-10-13T01:43:25;7.28;;;3.55;;
13445;SDS011;6795;51.232;3.764;2023-10-13T01:45:54;6.30;;;3.13;;
13445;SDS011;6795;51.232;3.764;2023-10-13T01:48:22;6.35;;;3.25;;
13445;SDS011;6795;51.232;3.764;2023-10-13T01:50:50;11.45;;;4.03;;
13445;SDS011;6795;51.232;3.764;2023-10-13T01:53:23;8.65;;;3.28;;
13445;SDS011;6795;51.232;3.764;2023-10-13T01:55:53;9.02;;;3.33;;
13445;SDS011;6795;51.232;3.764;2023-10-13T01:58:23;6.53;;;3.80;;
13445;SDS011;6795;51.232;3.764;2023-10-13T02:00:55;5.68;;;3.38;;
13445;SDS011;6795;51.232;3.764;2023-10-13T02:03:26;11.38;;;4.07;;
13445;SDS011;6795;51.232;3.764;2023-10-13T02:05:56;9.65;;;3.25;;
13445;SDS011;6795;51.232;3.764;2023-10-13T02:08:30;7.00;;;2.97;;
13445;SDS011;6795;51.232;3.764;2023-10-13T02:11:00;15.48;;;4.18;;
13445;SDS011;6795;51.232;3.764;2023-10-13T02:13:33;11.57;;;4.05;;
13445;SDS011;6795;51.232;3.764;2023-10-13T02:16:07;7.88;;;3.67;;
13445;SDS011;6795;51.232;3.764;2023-10-13T02:18:38;8.02;;;3.47;;
13445;SDS011;6795;51.232;3.764;2023-10-13T02:21:09;8.80;;;3.50;;
13445;SDS011;6795;51.232;3.764;2023-10-13T02:23:41;10.25;;;3.70;;
13445;SDS011;6795;51.232;3.764;2023-10-13T02:26:13;8.45;;;3.30;;
13445;SDS011;6795;51.232;3.764;2023-10-13T02:28:42;6.78;;;3.15;;
13445;SDS011;6795;51.232;3.764;2023-10-13T02:31:11;11.38;;;4.00;;
13445;SDS011;6795;51.232;3.764;2023-10-13T02:33:39;8.05;;;3.67;;
13445;SDS011;6795;51.232;3.764;2023-10-13T02:36:11;9.77;;;3.75;;
13445;SDS011;6795;51.232;3.764;2023-10-13T02:38:46;7.40;;;4.65;;
13445;SDS011;6795;51.232;3.764;2023-10-13T02:41:16;9.63;;;5.57;;
13445;SDS011;6795;51.232;3.764;2023-10-13T02:43:52;10.20;;;5.88;;
13445;SDS011;6795;51.232;3.764;2023-10-13T02:46:20;13.18;;;9.57;;
13445;SDS011;6795;51.232;3.764;2023-10-13T02:48:49;18.70;;;14.20;;
13445;SDS011;6795;51.232;3.764;2023-10-13T02:51:19;27.67;;;15.95;;
13445;SDS011;6795;51.232;3.764;2023-10-13T02:53:57;27.63;;;16.85;;
13445;SDS011;6795;51.232;3.764;2023-10-13T02:56:31;24.73;;;17.50;;
13445;SDS011;6795;51.232;3.764;2023-10-13T02:58:59;26.38;;;19.88;;
13445;SDS011;6795;51.232;3.764;2023-10-13T03:01:32;32.60;;;20.48;;
13445;SDS011;6795;51.232;3.764;2023-10-13T03:04:02;29.35;;;21.08;;
13445;SDS011;6795;51.232;3.764;2023-10-13T03:06:29;30.05;;;21.48;;
13445;SDS011;6795;51.232;3.764;2023-10-13T03:09:01;31.25;;;21.60;;
13445;SDS011;6795;51.232;3.764;2023-10-13T03:11:42;29.35;;;21.02;;
13445;SDS011;6795;51.232;3.764;2023-10-13T03:14:14;25.33;;;18.60;;
13445;SDS011;6795;51.232;3.764;2023-10-13T03:16:51;27.30;;;18.35;;
13445;SDS011;6795;51.232;3.764;2023-10-13T03:19:20;27.88;;;19.58;;
13445;SDS011;6795;51.232;3.764;2023-10-13T03:21:49;31.25;;;22.55;;
13445;SDS011;6795;51.232;3.764;2023-10-13T03:24:23;27.70;;;20.10;;
13445;SDS011;6795;51.232;3.764;2023-10-13T03:27:02;25.40;;;21.17;;
13445;SDS011;6795;51.232;3.764;2023-10-13T03:29:36;27.48;;;22.00;;
13445;SDS011;6795;51.232;3.764;2023-10-13T03:32:06;26.65;;;20.95;;
13445;SDS011;6795;51.232;3.764;2023-10-13T03:34:38;29.65;;;21.63;;
13445;SDS011;6795;51.232;3.764;2023-10-13T03:37:16;25.55;;;20.92;;
13445;SDS011;6795;51.232;3.764;2023-10-13T03:40:02;25.48;;;20.35;;
13445;SDS011;6795;51.232;3.764;2023-10-13T03:42:34;26.15;;;20.00;;
13445;SDS011;6795;51.232;3.764;2023-10-13T03:45:07;25.45;;;19.00;;
13445;SDS011;6795;51.232;3.764;2023-10-13T03:47:37;27.05;;;19.25;;
13445;SDS011;6795;51.232;3.764;2023-10-13T03:50:09;25.65;;;16.95;;
13445;SDS011;6795;51.232;3.764;2023-10-13T03:52:55;20.92;;;16.60;;
13445;SDS011;6795;51.232;3.764;2023-10-13T03:55:24;22.38;;;15.63;;
13445;SDS011;6795;51.232;3.764;2023-10-13T03:57:56;20.88;;;14.85;;
13445;SDS011;6795;51.232;3.764;2023-10-13T04:00:26;17.75;;;12.30;;
13445;SDS011;6795;51.232;3.764;2023-10-13T04:02:55;17.52;;;12.50;;
13445;SDS011;6795;51.232;3.764;2023-10-13T04:05:36;16.50;;;11.30;;
13445;SDS011;6795;51.232;3.764;2023-10-13T04:08:14;14.93;;;12.32;;
13445;SDS011;6795;51.232;3.764;2023-10-13T04:11:00;15.30;;;11.45;;
13445;SDS011;6795;51.232;3.764;2023-10-13T04:13:47;16.50;;;11.20;;
13445;SDS011;6795;51.232;3.764;2023-10-13T04:16:45;14.40;;;9.77;;
13445;SDS011;6795;51.232;3.764;2023-10-13T04:19:28;17.42;;;10.35;;
13445;SDS011;6795;51.232;3.764;2023-10-13T04:22:03;18.25;;;10.02;;
13445;SDS011;6795;51.232;3.764;2023-10-13T04:24:41;16.40;;;9.60;;
13445;SDS011;6795;51.232;3.764;2023-10-13T04:27:27;12.73;;;9.57;;
13445;SDS011;6795;51.232;3.764;2023-10-13T04:30:23;13.27;;;9.25;;
13445;SDS011;6795;51.232;3.764;2023-10-13T04:32:56;14.23;;;9.48;;
13445;SDS011;6795;51.232;3.764;2023-10-13T04:35:44;13.40;;;9.48;;
13445;SDS011;6795;51.232;3.764;2023-10-13T04:38:24;15.15;;;9.68;;
13445;SDS011;6795;51.232;3.764;2023-10-13T04:41:02;21.23;;;10.27;;
13445;SDS011;6795;51.232;3.764;2023-10-13T04:43:39;12.80;;;9.45;;
13445;SDS011;6795;51.232;3.764;2023-10-13T04:46:24;18.33;;;10.05;;
13445;SDS011;6795;51.232;3.764;2023-10-13T04:49:02;21.55;;;11.52;;
13445;SDS011;6795;51.232;3.764;2023-10-13T04:51:54;19.35;;;10.57;;
13445;SDS011;6795;51.232;3.764;2023-10-13T04:54:26;15.77;;;10.73;;
13445;SDS011;6795;51.232;3.764;2023-10-13T04:57:00;18.45;;;10.65;;
13445;SDS011;6795;51.232;3.764;2023-10-13T04:59:46;17.02;;;11.15;;
13445;SDS011;6795;51.232;3.764;2023-10-13T05:02:40;14.65;;;10.27;;
13445;SDS011;6795;51.232;3.764;2023-10-13T05:05:41;16.40;;;10.75;;
13445;SDS011;6795;51.232;3.764;2023-10-13T05:08:34;17.58;;;9.90;;
13445;SDS011;6795;51.232;3.764;2023-10-13T05:11:20;17.85;;;10.43;;
13445;SDS011;6795;51.232;3.764;2023-10-13T05:14:09;21.98;;;10.18;;
13445;SDS011;6795;51.232;3.764;2023-10-13T05:16:55;17.45;;;10.35;;
13445;SDS011;6795;51.232;3.764;2023-10-13T05:19:43;17.80;;;10.63;;
13445;SDS011;6795;51.232;3.764;2023-10-13T05:22:30;16.08;;;9.75;;
13445;SDS011;6795;51.232;3.764;2023-10-13T05:25:19;20.63;;;10.70;;
13445;SDS011;6795;51.232;3.764;2023-10-13T05:28:05;17.33;;;10.27;;
13445;SDS011;6795;51.232;3.764;2023-10-13T05:31:02;19.30;;;10.43;;
13445;SDS011;6795;51.232;3.764;2023-10-13T05:33:48;25.48;;;10.45;;
13445;SDS011;6795;51.232;3.764;2023-10-13T05:36:36;15.15;;;10.38;;
13445;SDS011;6795;51.232;3.764;2023-10-13T05:39:24;19.55;;;10.68;;
13445;SDS011;6795;51.232;3.764;2023-10-13T05:42:11;25.10;;;12.98;;
13445;SDS011;6795;51.232;3.764;2023-10-13T05:44:57;24.15;;;13.85;;
13445;SDS011;6795;51.232;3.764;2023-10-13T05:47:52;17.42;;;12.05;;
13445;SDS011;6795;51.232;3.764;2023-10-13T05:50:39;20.48;;;12.18;;
13445;SDS011;6795;51.232;3.764;2023-10-13T05:53:38;19.38;;;11.38;;
13445;SDS011;6795;51.232;3.764;2023-10-13T05:56:24;22.20;;;12.98;;
13445;SDS011;6795;51.232;3.764;2023-10-13T05:59:11;22.88;;;12.68;;
13445;SDS011;6795;51.232;3.764;2023-10-13T06:01:57;20.33;;;11.82;;
13445;SDS011;6795;51.232;3.764;2023-10-13T06:04:46;22.02;;;11.13;;
13445;SDS011;6795;51.232;3.764;2023-10-13T06:07:33;20.02;;;10.55;;
13445;SDS011;6795;51.232;3.764;2023-10-13T06:10:20;21.85;;;11.43;;
13445;SDS011;6795;51.232;3.764;2023-10-13T06:13:10;25.10;;;12.00;;
13445;SDS011;6795;51.232;3.764;2023-10-13T06:15:57;20.27;;;11.50;;
13445;SDS011;6795;51.232;3.764;2023-10-13T06:18:43;21.98;;;9.63;;
13445;SDS011;6795;51.232;3.764;2023-10-13T06:21:29;20.55;;;9.82;;
13445;SDS011;6795;51.232;3.764;2023-10-13T06:24:16;20.58;;;7.93;;
13445;SDS011;6795;51.232;3.764;2023-10-13T06:27:03;25.85;;;9.27;;
13445;SDS011;6795;51.232;3.764;2023-10-13T06:29:51;20.10;;;8.13;;
13445;SDS011;6795;51.232;3.764;2023-10-13T06:32:23;27.30;;;8.07;;
13445;SDS011;6795;51.232;3.764;2023-10-13T06:34:55;16.98;;;7.65;;
13445;SDS011;6795;51.232;3.764;2023-10-13T06:37:24;15.50;;;7.93;;
13445;SDS011;6795;51.232;3.764;2023-10-13T06:39:57;13.45;;;6.13;;
13445;SDS011;6795;51.232;3.764;2023-10-13T06:42:34;18.83;;;6.88;;
13445;SDS011;6795;51.232;3.764;2023-10-13T06:45:08;15.98;;;6.65;;
13445;SDS011;6795;51.232;3.764;2023-10-13T06:47:38;12.45;;;6.75;;
13445;SDS011;6795;51.232;3.764;2023-10-13T06:50:09;16.20;;;6.57;;
13445;SDS011;6795;51.232;3.764;2023-10-13T06:52:42;14.68;;;6.03;;
13445;SDS011;6795;51.232;3.764;2023-10-13T06:55:10;15.85;;;6.60;;
13445;SDS011;6795;51.232;3.764;2023-10-13T06:57:45;13.88;;;6.10;;
13445;SDS011;6795;51.232;3.764;2023-10-13T07:00:15;15.23;;;5.82;;
13445;SDS011;6795;51.232;3.764;2023-10-13T07:02:54;12.50;;;6.07;;
13445;SDS011;6795;51.232;3.764;2023-10-13T07:05:34;13.20;;;5.30;;
13445;SDS011;6795;51.232;3.764;2023-10-13T07:08:05;11.80;;;5.25;;
13445;SDS011;6795;51.232;3.764;2023-10-13T07:10:35;12.07;;;5.30;;
13445;SDS011;6795;51.232;3.764;2023-10-13T07:13:15;10.75;;;5.57;;
13445;SDS011;6795;51.232;3.764;2023-10-13T07:15:46;13.35;;;5.40;;
13445;SDS011;6795;51.232;3.764;2023-10-13T07:18:14;10.50;;;5.10;;
13445;SDS011;6795;51.232;3.764;2023-10-13T07:20:44;13.82;;;4.93;;
13445;SDS011;6795;51.232;3.764;2023-10-13T07:23:12;11.20;;;5.28;;
13445;SDS011;6795;51.232;3.764;2023-10-13T07:25:52;18.42;;;5.28;;
13445;SDS011;6795;51.232;3.764;2023-10-13T07:28:24;16.95;;;6.18;;
13445;SDS011;6795;51.232;3.764;2023-10-13T07:30:53;10.35;;;4.95;;
13445;SDS011;6795;51.232;3.764;2023-10-13T07:33:35;12.05;;;4.65;;
13445;SDS011;6795;51.232;3.764;2023-10-13T07:36:06;10.02;;;3.53;;
13445;SDS011;6795;51.232;3.764;2023-10-13T07:38:42;11.40;;;5.35;;
13445;SDS011;6795;51.232;3.764;2023-10-13T07:41:31;13.35;;;4.60;;
13445;SDS011;6795;51.232;3.764;2023-10-13T07:44:05;8.27;;;4.57;;
13445;SDS011;6795;51.232;3.764;2023-10-13T07:46:33;11.77;;;4.63;;
13445;SDS011;6795;51.232;3.764;2023-10-13T07:49:02;8.80;;;4.63;;
13445;SDS011;6795;51.232;3.764;2023-10-13T07:51:37;13.35;;;4.70;;
13445;SDS011;6795;51.232;3.764;2023-10-13T07:54:11;12.77;;;4.45;;
13445;SDS011;6795;51.232;3.764;2023-10-13T07:56:48;12.48;;;4.50;;
13445;SDS011;6795;51.232;3.764;2023-10-13T07:59:18;12.10;;;4.40;;
13445;SDS011;6795;51.232;3.764;2023-10-13T08:01:50;10.30;;;4.35;;
13445;SDS011;6795;51.232;3.764;2023-10-13T08:04:32;8.75;;;4.18;;
13445;SDS011;6795;51.232;3.764;2023-10-13T08:07:02;11.77;;;4.60;;
13445;SDS011;6795;51.232;3.764;2023-10-13T08:09:39;15.38;;;4.80;;
13445;SDS011;6795;51.232;3.764;2023-10-13T08:12:10;12.98;;;4.43;;
13445;SDS011;6795;51.232;3.764;2023-10-13T08:14:40;9.65;;;4.07;;
13445;SDS011;6795;51.232;3.764;2023-10-13T08:17:11;8.10;;;3.72;;
13445;SDS011;6795;51.232;3.764;2023-10-13T08:19:41;14.00;;;4.20;;
13445;SDS011;6795;51.232;3.764;2023-10-13T08:22:13;10.05;;;4.47;;
13445;SDS011;6795;51.232;3.764;2023-10-13T08:24:50;10.38;;;4.22;;
13445;SDS011;6795;51.232;3.764;2023-10-13T08:27:43;14.38;;;3.72;;
13445;SDS011;6795;51.232;3.764;2023-10-13T08:30:33;9.48;;;3.10;;
13445;SDS011;6795;51.232;3.764;2023-10-13T08:33:18;10.82;;;3.85;;
13445;SDS011;6795;51.232;3.764;2023-10-13T08:35:51;10.95;;;3.10;;
13445;SDS011;6795;51.232;3.764;2023-10-13T08:38:32;12.95;;;3.95;;
13445;SDS011;6795;51.232;3.764;2023-10-13T08:41:18;14.02;;;4.68;;
13445;SDS011;6795;51.232;3.764;2023-10-13T08:44:01;12.63;;;4.38;;
13445;SDS011;6795;51.232;3.764;2023-10-13T08:46:37;9.75;;;4.05;;
13445;SDS011;6795;51.232;3.764;2023-10-13T08:49:23;13.30;;;4.72;;
13445;SDS011;6795;51.232;3.764;2023-10-13T08:51:56;12.57;;;4.43;;
13445;SDS011;6795;51.232;3.764;2023-10-13T08:54:53;10.20;;;3.95;;
13445;SDS011;6795;51.232;3.764;2023-10-13T08:57:53;9.40;;;4.07;;
13445;SDS011;6795;51.232;3.764;2023-10-13T09:00:31;9.65;;;4.53;;
13445;SDS011;6795;51.232;3.764;2023-10-13T09:03:15;12.80;;;4.75;;
13445;SDS011;6795;51.232;3.764;2023-10-13T09:06:06;10.10;;;4.07;;
13445;SDS011;6795;51.232;3.764;2023-10-13T09:08:41;13.57;;;5.38;;
13445;SDS011;6795;51.232;3.764;2023-10-13T09:11:33;14.18;;;5.20;;
13445;SDS011;6795;51.232;3.764;2023-10-13T09:14:16;13.23;;;4.75;;
13445;SDS011;6795;51.232;3.764;2023-10-13T09:17:02;9.45;;;4.25;;
13445;SDS011;6795;51.232;3.764;2023-10-13T09:19:49;14.63;;;4.90;;
13445;SDS011;6795;51.232;3.764;2023-10-13T09:22:23;8.38;;;3.28;;
13445;SDS011;6795;51.232;3.764;2023-10-13T09:24:55;11.02;;;3.42;;
13445;SDS011;6795;51.232;3.764;2023-10-13T09:27:26;8.43;;;4.30;;
13445;SDS011;6795;51.232;3.764;2023-10-13T09:29:55;13.48;;;4.70;;
13445;SDS011;6795;51.232;3.764;2023-10-13T09:32:26;16.98;;;3.90;;
13445;SDS011;6795;51.232;3.764;2023-10-13T09:35:01;12.93;;;4.18;;
13445;SDS011;6795;51.232;3.764;2023-10-13T09:37:32;9.73;;;3.78;;
13445;SDS011;6795;51.232;3.764;2023-10-13T09:40:04;10.27;;;4.63;;
13445;SDS011;6795;51.232;3.764;2023-10-13T09:42:51;11.43;;;3.85;;
13445;SDS011;6795;51.232;3.764;2023-10-13T09:45:24;14.30;;;4.63;;
13445;SDS011;6795;51.232;3.764;2023-10-13T09:47:55;9.82;;;4.55;;
13445;SDS011;6795;51.232;3.764;2023-10-13T09:50:36;16.00;;;4.35;;
13445;SDS011;6795;51.232;3.764;2023-10-13T09:53:10;8.50;;;4.20;;
13445;SDS011;6795;51.232;3.764;2023-10-13T09:55:41;10.15;;;3.85;;
13445;SDS011;6795;51.232;3.764;2023-10-13T09:58:12;13.45;;;4.50;;
13445;SDS011;6795;51.232;3.764;2023-10-13T10:00:43;14.23;;;4.65;;
13445;SDS011;6795;51.232;3.764;2023-10-13T10:03:16;8.77;;;4.18;;
13445;SDS011;6795;51.232;3.764;2023-10-13T10:06:03;12.65;;;4.38;;
13445;SDS011;6795;51.232;3.764;2023-10-13T10:08:33;11.32;;;3.72;;
13445;SDS011;6795;51.232;3.764;2023-10-13T10:11:17;9.90;;;4.10;;
13445;SDS011;6795;51.232;3.764;2023-10-13T10:14:14;15.10;;;4.75;;
13445;SDS011;6795;51.232;3.764;2023-10-13T10:16:50;11.55;;;4.40;;
13445;SDS011;6795;51.232;3.764;2023-10-13T10:19:45;9.30;;;4.15;;
13445;SDS011;6795;51.232;3.764;2023-10-13T10:22:28;10.13;;;4.65;;
13445;SDS011;6795;51.232;3.764;2023-10-13T10:25:01;13.07;;;4.75;;
13445;SDS011;6795;51.232;3.764;2023-10-13T10:27:33;14.95;;;3.67;;
13445;SDS011;6795;51.232;3.764;2023-10-13T10:30:02;13.38;;;4.93;;
13445;SDS011;6795;51.232;3.764;2023-10-13T10:32:32;13.85;;;4.78;;
13445;SDS011;6795;51.232;3.764;2023-10-13T10:35:02;16.35;;;4.90;;
13445;SDS011;6795;51.232;3.764;2023-10-13T10:37:37;13.90;;;5.53;;
13445;SDS011;6795;51.232;3.764;2023-10-13T10:40:19;13.23;;;4.57;;
13445;SDS011;6795;51.232;3.764;2023-10-13T10:43:13;10.80;;;4.40;;
13445;SDS011;6795;51.232;3.764;2023-10-13T10:45:59;13.70;;;4.70;;
13445;SDS011;6795;51.232;3.764;2023-10-13T10:48:27;10.25;;;4.63;;
13445;SDS011;6795;51.232;3.764;2023-10-13T10:51:05;13.07;;;5.07;;
13445;SDS011;6795;51.232;3.764;2023-10-13T10:53:42;13.65;;;5.20;;
13445;SDS011;6795;51.232;3.764;2023-10-13T10:56:11;15.40;;;5.82;;
13445;SDS011;6795;51.232;3.764;2023-10-13T10:59:04;14.52;;;4.88;;
13445;SDS011;6795;51.232;3.764;2023-10-13T11:01:42;9.32;;;4.57;;
13445;SDS011;6795;51.232;3.764;2023-10-13T11:04:14;11.98;;;5.05;;
13445;SDS011;6795;51.232;3.764;2023-10-13T11:06:46;12.98;;;5.50;;
13445;SDS011;6795;51.232;3.764;2023-10-13T11:09:23;18.02;;;5.38;;
13445;SDS011;6795;51.232;3.764;2023-10-13T11:12:08;11.57;;;4.60;;
13445;SDS011;6795;51.232;3.764;2023-10-13T11:14:42;13.50;;;5.50;;
13445;SDS011;6795;51.232;3.764;2023-10-13T11:17:18;16.35;;;5.60;;
13445;SDS011;6795;51.232;3.764;2023-10-13T11:19:52;14.73;;;5.15;;
13445;SDS011;6795;51.232;3.764;2023-10-13T11:22:22;19.13;;;5.65;;
13445;SDS011;6795;51.232;3.764;2023-10-13T11:25:09;14.38;;;5.05;;
13445;SDS011;6795;51.232;3.764;2023-10-13T11:27:38;17.48;;;5.93;;
13445;SDS011;6795;51.232;3.764;2023-10-13T11:30:22;15.48;;;4.97;;
13445;SDS011;6795;51.232;3.764;2023-10-13T11:32:59;16.58;;;5.47;;
13445;SDS011;6795;51.232;3.764;2023-10-13T11:35:29;17.55;;;6.03;;
13445;SDS011;6795;51.232;3.764;2023-10-13T11:38:16;14.55;;;5.22;;
13445;SDS011;6795;51.232;3.764;2023-10-13T11:40:54;17.80;;;5.20;;
13445;SDS011;6795;51.232;3.764;2023-10-13T11:43:43;15.52;;;5.15;;
13445;SDS011;6795;51.232;3.764;2023-10-13T11:46:31;14.23;;;5.22;;
13445;SDS011;6795;51.232;3.764;2023-10-13T11:49:17;12.23;;;5.25;;
13445;SDS011;6795;51.232;3.764;2023-10-13T11:51:46;13.23;;;4.80;;
13445;SDS011;6795;51.232;3.764;2023-10-13T11:54:15;9.93;;;4.85;;
13445;SDS011;6795;51.232;3.764;2023-10-13T11:56:47;10.50;;;4.55;;
13445;SDS011;6795;51.232;3.764;2023-10-13T11:59:16;15.75;;;4.88;;
13445;SDS011;6795;51.232;3.764;2023-10-13T12:01:45;14.15;;;5.10;;
13445;SDS011;6795;51.232;3.764;2023-10-13T12:04:31;10.88;;;5.18;;
13445;SDS011;6795;51.232;3.764;2023-10-13T12:07:07;13.02;;;5.10;;
13445;SDS011;6795;51.232;3.764;2023-10-13T12:09:50;9.52;;;5.10;;
13445;SDS011;6795;51.232;3.764;2023-10-13T12:12:34;19.20;;;5.30;;
13445;SDS011;6795;51.232;3.764;2023-10-13T12:15:09;9.90;;;3.88;;
13445;SDS011;6795;51.232;3.764;2023-10-13T12:17:52;12.73;;;4.05;;
13445;SDS011;6795;51.232;3.764;2023-10-13T12:20:26;16.58;;;5.35;;
13445;SDS011;6795;51.232;3.764;2023-10-13T12:23:00;14.38;;;4.78;;
13445;SDS011;6795;51.232;3.764;2023-10-13T12:25:42;12.10;;;5.05;;
13445;SDS011;6795;51.232;3.764;2023-10-13T12:28:26;14.90;;;5.15;;
13445;SDS011;6795;51.232;3.764;2023-10-13T12:30:55;11.15;;;4.88;;
13445;SDS011;6795;51.232;3.764;2023-10-13T12:33:25;16.02;;;4.60;;
13445;SDS011;6795;51.232;3.764;2023-10-13T12:36:03;11.93;;;3.63;;
13445;SDS011;6795;51.232;3.764;2023-10-13T12:38:41;11.77;;;3.92;;
13445;SDS011;6795;51.232;3.764;2023-10-13T12:41:33;10.82;;;4.47;;
13445;SDS011;6795;51.232;3.764;2023-10-13T12:44:20;9.35;;;4.22;;
13445;SDS011;6795;51.232;3.764;2023-10-13T12:47:06;10.65;;;4.78;;
13445;SDS011;6795;51.232;3.764;2023-10-13T12:49:52;14.00;;;4.82;;
13445;SDS011;6795;51.232;3.764;2023-10-13T12:52:35;11.38;;;4.47;;
13445;SDS011;6795;51.232;3.764;2023-10-13T12:55:03;11.25;;;3.92;;
13445;SDS011;6795;51.232;3.764;2023-10-13T12:57:36;14.27;;;4.28;;
13445;SDS011;6795;51.232;3.764;2023-10-13T13:00:12;13.35;;;4.30;;
13445;SDS011;6795;51.232;3.764;2023-10-13T13:03:00;8.68;;;3.08;;
13445;SDS011;6795;51.232;3.764;2023-10-13T13:05:38;10.50;;;4.07;;
13445;SDS011;6795;51.232;3.764;2023-10-13T13:08:11;8.07;;;4.13;;
13445;SDS011;6795;51.232;3.764;2023-10-13T13:10:49;8.63;;;3.95;;
13445;SDS011;6795;51.232;3.764;2023-10-13T13:13:18;12.07;;;4.72;;
13445;SDS011;6795;51.232;3.764;2023-10-13T13:15:52;11.23;;;4.78;;
13445;SDS011;6795;51.232;3.764;2023-10-13T13:18:21;10.45;;;4.07;;
13445;SDS011;6795;51.232;3.764;2023-10-13T13:20:50;13.60;;;5.32;;
13445;SDS011;6795;51.232;3.764;2023-10-13T13:23:21;14.10;;;4.97;;
13445;SDS011;6795;51.232;3.764;2023-10-13T13:25:53;10.90;;;3.92;;
13445;SDS011;6795;51.232;3.764;2023-10-13T13:28:23;11.70;;;3.60;;
13445;SDS011;6795;51.232;3.764;2023-10-13T13:30:57;11.23;;;3.90;;
13445;SDS011;6795;51.232;3.764;2023-10-13T13:33:25;13.77;;;4.15;;
13445;SDS011;6795;51.232;3.764;2023-10-13T13:36:00;10.00;;;3.53;;
13445;SDS011;6795;51.232;3.764;2023-10-13T13:38:33;13.18;;;4.45;;
13445;SDS011;6795;51.232;3.764;2023-10-13T13:41:01;11.55;;;3.80;;
13445;SDS011;6795;51.232;3.764;2023-10-13T13:43:36;11.60;;;3.00;;
13445;SDS011;6795;51.232;3.764;2023-10-13T13:46:19;9.45;;;3.70;;
13445;SDS011;6795;51.232;3.764;2023-10-13T13:48:51;11.27;;;2.88;;
13445;SDS011;6795;51.232;3.764;2023-10-13T13:51:25;10.77;;;3.10;;
13445;SDS011;6795;51.232;3.764;2023-10-13T13:53:54;8.45;;;2.90;;
13445;SDS011;6795;51.232;3.764;2023-10-13T13:56:24;13.00;;;3.50;;
13445;SDS011;6795;51.232;3.764;2023-10-13T13:58:54;12.23;;;2.97;;
13445;SDS011;6795;51.232;3.764;2023-10-13T14:01:24;13.20;;;3.30;;
13445;SDS011;6795;51.232;3.764;2023-10-13T14:03:53;13.07;;;3.25;;
13445;SDS011;6795;51.232;3.764;2023-10-13T14:06:25;7.00;;;2.60;;
13445;SDS011;6795;51.232;3.764;2023-10-13T14:08:54;9.77;;;2.92;;
13445;SDS011;6795;51.232;3.764;2023-10-13T14:11:27;11.98;;;3.78;;
13445;SDS011;6795;51.232;3.764;2023-10-13T14:14:15;9.90;;;3.30;;
13445;SDS011;6795;51.232;3.764;2023-10-13T14:17:01;7.00;;;2.58;;
13445;SDS011;6795;51.232;3.764;2023-10-13T14:19:34;12.38;;;3.47;;
13445;SDS011;6795;51.232;3.764;2023-10-13T14:22:07;9.45;;;2.60;;
13445;SDS011;6795;51.232;3.764;2023-10-13T14:24:39;12.35;;;3.00;;
13445;SDS011;6795;51.232;3.764;2023-10-13T14:27:14;10.55;;;3.58;;
13445;SDS011;6795;51.232;3.764;2023-10-13T14:29:46;7.82;;;2.88;;
13445;SDS011;6795;51.232;3.764;2023-10-13T14:32:17;10.20;;;4.50;;
13445;SDS011;6795;51.232;3.764;2023-10-13T14:34:51;8.75;;;3.53;;
13445;SDS011;6795;51.232;3.764;2023-10-13T14:37:23;12.40;;;5.40;;
13445;SDS011;6795;51.232;3.764;2023-10-13T14:39:58;8.05;;;4.13;;
13445;SDS011;6795;51.232;3.764;2023-10-13T14:42:28;8.98;;;4.13;;
13445;SDS011;6795;51.232;3.764;2023-10-13T14:45:02;8.57;;;4.10;;
13445;SDS011;6795;51.232;3.764;2023-10-13T14:47:40;12.13;;;4.50;;
13445;SDS011;6795;51.232;3.764;2023-10-13T14:50:09;9.52;;;3.78;;
13445;SDS011;6795;51.232;3.764;2023-10-13T14:52:46;13.75;;;4.50;;
13445;SDS011;6795;51.232;3.764;2023-10-13T14:55:16;8.73;;;4.13;;
13445;SDS011;6795;51.232;3.764;2023-10-13T14:57:48;9.13;;;4.38;;
13445;SDS011;6795;51.232;3.764;2023-10-13T15:00:18;9.90;;;3.95;;
13445;SDS011;6795;51.232;3.764;2023-10-13T15:02:56;8.75;;;3.30;;
13445;SDS011;6795;51.232;3.764;2023-10-13T15:05:27;10.50;;;4.28;;
13445;SDS011;6795;51.232;3.764;2023-10-13T15:07:58;12.23;;;3.78;;
13445;SDS011;6795;51.232;3.764;2023-10-13T15:10:26;15.07;;;4.70;;
13445;SDS011;6795;51.232;3.764;2023-10-13T15:12:55;11.73;;;4.97;;
13445;SDS011;6795;51.232;3.764;2023-10-13T15:15:27;8.98;;;4.82;;
13445;SDS011;6795;51.232;3.764;2023-10-13T15:18:00;12.35;;;4.88;;
13445;SDS011;6795;51.232;3.764;2023-10-13T15:20:28;9.65;;;3.65;;
13445;SDS011;6795;51.232;3.764;2023-10-13T15:22:56;11.02;;;4.70;;
13445;SDS011;6795;51.232;3.764;2023-10-13T15:25:27;15.00;;;4.80;;
13445;SDS011;6795;51.232;3.764;2023-10-13T15:28:05;8.73;;;3.80;;
13445;SDS011;6795;51.232;3.764;2023-10-13T15:30:36;9.23;;;4.05;;
13445;SDS011;6795;51.232;3.764;2023-10-13T15:33:20;8.75;;;4.35;;
13445;SDS011;6795;51.232;3.764;2023-10-13T15:35:47;11.85;;;4.32;;
13445;SDS011;6795;51.232;3.764;2023-10-13T15:38:18;9.95;;;3.60;;
13445;SDS011;6795;51.232;3.764;2023-10-13T15:40:48;9.25;;;3.97;;
13445;SDS011;6795;51.232;3.764;2023-10-13T15:43:22;7.75;;;3.75;;